sim
Sign-in with your pilot id or email,
or register
Callsign
Passwort

Schedule Details

Flight Number: DLH424
Departure: Munich Airport (EDDM) at 14:45
Arrival: Boston Logan International Airport (KBOS) at 23:35
Route: Lufthansa Passenger Schedule. Enter filed route here before submitting Pirep.

Weather Information
Getting current METAR information for EDDM 282250Z 09002KT 9999 SCT048 08/07 Q1016 NOSIG
Getting current METAR information for KBOS 282254Z 17007KT 10SM FEW028 FEW060 SCT150 BKN250 20/18 A2992 RMK AO2 SLP132 T02000183

Schedule Frequency

Route Map